Terminal Aerodrome Forecast
Issued by NWS

Home | Current Version | Previous Version | Text Only | Print | Product List | Glossary On
Versions: 1 2 3 4 5 6 7 8 9 10 11 12 13 14 15 16 17 18 19
402
FTUS41 KAKQ 291723
TAFPHF
TAF
KPHF 291723Z 2918/3018 34008KT P6SM VCSH BKN030 BKN050
     FM292200 01005KT P6SM SCT080 BKN250
     FM300500 VRB03KT P6SM SCT250
     FM301200 13005KT P6SM SCT080 BKN250=

USA.gov is the U.S. government's official web portal to all federal, state and local government web resources and services.